createdAt,value
2022-08-17T00:02:25.875Z,61.08
2022-08-17T00:04:50.730Z,61.41
2022-08-17T00:07:12.777Z,61.52
2022-08-17T00:09:34.596Z,61.51
2022-08-17T00:12:41.651Z,61.50
2022-08-17T00:14:38.627Z,61.38
2022-08-17T00:17:00.849Z,61.53
2022-08-17T00:19:25.669Z,61.70
2022-08-17T00:22:29.520Z,61.55
2022-08-17T00:24:30.964Z,61.80
2022-08-17T00:26:52.854Z,61.64
2022-08-17T00:29:19.674Z,61.53
2022-08-17T00:31:42.007Z,61.72
2022-08-17T00:34:06.329Z,61.77
2022-08-17T00:36:28.609Z,61.55
2022-08-17T00:38:51.411Z,61.73
2022-08-17T00:41:18.852Z,61.81
2022-08-17T00:44:03.751Z,61.52
2022-08-17T00:46:39.333Z,61.87
2022-08-17T00:49:01.158Z,61.75
2022-08-17T00:51:46.776Z,62.05
2022-08-17T00:54:29.786Z,61.75
2022-08-17T00:57:11.153Z,62.15
2022-08-17T00:59:39.779Z,61.90
2022-08-17T01:02:03.921Z,61.96
2022-08-17T01:04:29.086Z,62.15
2022-08-17T01:06:52.502Z,62.13
2022-08-17T01:09:16.960Z,62.32
2022-08-17T01:11:40.598Z,62.33
2022-08-17T01:14:03.132Z,62.49
2022-08-17T01:16:31.903Z,62.57
2022-08-17T01:19:00.277Z,62.45
2022-08-17T01:21:47.750Z,62.42
2022-08-17T01:24:10.008Z,62.74
2022-08-17T01:26:34.504Z,62.79
2022-08-17T01:28:56.589Z,62.59
2022-08-17T01:31:18.568Z,62.84
2022-08-17T01:33:40.919Z,62.82
2022-08-17T01:36:07.034Z,63.15
2022-08-17T01:38:31.956Z,63.11
2022-08-17T01:41:01.689Z,63.20
2022-08-17T01:43:31.146Z,63.31
2022-08-17T01:46:03.264Z,63.38
2022-08-17T01:48:33.516Z,63.60
2022-08-17T01:50:55.370Z,63.66
2022-08-17T01:53:34.985Z,63.61
2022-08-17T01:56:05.662Z,63.74
2022-08-17T01:58:27.725Z,63.76
2022-08-17T02:01:00.954Z,63.93
2022-08-17T02:03:25.300Z,63.92
2022-08-17T02:05:53.588Z,63.75
2022-08-17T02:08:20.144Z,63.96
2022-08-17T02:10:46.938Z,63.80
2022-08-17T02:13:09.308Z,63.86
2022-08-17T02:15:32.178Z,64.02
2022-08-17T02:17:54.832Z,64.28
2022-08-17T02:20:17.312Z,64.20
2022-08-17T02:23:03.197Z,64.01
2022-08-17T02:25:33.710Z,63.96
2022-08-17T02:27:55.632Z,64.08
2022-08-17T02:31:02.201Z,63.71
2022-08-17T02:32:59.794Z,64.03
2022-08-17T02:35:26.230Z,64.17
2022-08-17T02:37:55.375Z,64.08
2022-08-17T02:40:19.128Z,64.34
2022-08-17T02:42:58.463Z,64.46
2022-08-17T02:45:25.297Z,64.47
2022-08-17T02:47:47.622Z,64.57
2022-08-17T02:50:12.718Z,64.65
2022-08-17T02:52:42.945Z,64.66
2022-08-17T02:55:27.930Z,64.73
2022-08-17T02:57:51.616Z,64.73
2022-08-17T03:00:29.040Z,64.93
2022-08-17T03:02:52.140Z,64.88
2022-08-17T03:05:18.321Z,65.18
2022-08-17T03:07:40.387Z,64.98
2022-08-17T03:10:02.388Z,65.11
2022-08-17T03:12:24.462Z,65.34
2022-08-17T03:14:46.258Z,65.52
2022-08-17T03:17:10.098Z,65.76
2022-08-17T03:19:33.143Z,65.85
2022-08-17T03:21:55.618Z,66.38
2022-08-17T03:24:18.107Z,66.20
2022-08-17T03:26:39.934Z,66.40
2022-08-17T03:29:01.823Z,66.56
2022-08-17T03:31:23.772Z,66.87
2022-08-17T03:33:45.714Z,67.02
2022-08-17T03:36:08.278Z,67.00
2022-08-17T03:38:30.305Z,67.17
2022-08-17T03:41:01.854Z,67.07
2022-08-17T03:43:23.873Z,67.22
2022-08-17T03:46:04.105Z,67.03
2022-08-17T03:48:47.466Z,66.96
2022-08-17T03:51:38.205Z,67.01
2022-08-17T03:54:18.621Z,66.92
2022-08-17T03:56:44.117Z,66.77
2022-08-17T03:59:05.964Z,66.69
2022-08-17T04:01:28.101Z,67.01
2022-08-17T04:03:49.946Z,66.92
2022-08-17T04:06:11.873Z,66.76
2022-08-17T04:08:34.191Z,66.89
2022-08-17T04:10:57.445Z,66.79
2022-08-17T04:13:24.723Z,66.93
2022-08-17T04:15:49.235Z,66.90
2022-08-17T04:18:11.201Z,66.97
2022-08-17T04:20:33.764Z,66.83
2022-08-17T04:23:18.500Z,66.94
2022-08-17T04:25:50.125Z,67.17
2022-08-17T04:28:16.238Z,67.11
2022-08-17T04:30:39.623Z,67.21
2022-08-17T04:33:10.698Z,67.38
2022-08-17T04:35:36.666Z,67.47
2022-08-17T04:37:59.131Z,67.58
2022-08-17T04:40:40.946Z,67.81
2022-08-17T04:43:10.981Z,67.73
2022-08-17T04:45:33.899Z,67.98
2022-08-17T04:47:55.725Z,67.95
2022-08-17T04:50:17.908Z,68.15
2022-08-17T04:52:46.687Z,68.19
2022-08-17T04:55:09.781Z,68.10
2022-08-17T04:57:31.648Z,68.35
2022-08-17T05:00:01.784Z,68.34
2022-08-17T05:02:25.025Z,68.54
2022-08-17T05:04:46.918Z,68.79
2022-08-17T05:07:08.799Z,69.00
2022-08-17T05:09:31.053Z,69.19
2022-08-17T05:11:52.942Z,69.32
2022-08-17T05:14:17.329Z,69.29
2022-08-17T05:16:39.251Z,69.63
2022-08-17T05:19:02.608Z,69.69
2022-08-17T05:21:25.450Z,69.59
2022-08-17T05:23:50.338Z,69.83
2022-08-17T05:26:25.954Z,69.68
2022-08-17T05:28:49.243Z,69.66
2022-08-17T05:31:12.942Z,69.56
2022-08-17T05:33:44.329Z,69.54
2022-08-17T05:36:11.854Z,69.47
2022-08-17T05:38:53.739Z,69.67
2022-08-17T05:41:15.669Z,69.40
2022-08-17T05:43:42.998Z,69.69
2022-08-17T05:46:43.591Z,69.89
2022-08-17T05:49:08.568Z,69.97
2022-08-17T05:52:02.457Z,70.29
2022-08-17T05:54:40.226Z,70.27
2022-08-17T05:57:28.387Z,70.21
2022-08-17T06:00:30.597Z,70.43
2022-08-17T06:03:34.304Z,70.29
2022-08-17T06:06:31.598Z,70.25
2022-08-17T06:09:32.948Z,70.61
2022-08-17T06:12:38.633Z,70.91
2022-08-17T06:15:10.870Z,70.78
2022-08-17T06:17:34.569Z,70.51
2022-08-17T06:20:01.363Z,70.73
2022-08-17T06:22:33.145Z,71.11
2022-08-17T06:25:02.715Z,70.61
2022-08-17T06:27:35.928Z,70.73
2022-08-17T06:30:20.936Z,70.81
2022-08-17T06:32:47.453Z,70.69
2022-08-17T06:35:14.430Z,70.67
2022-08-17T06:38:37.887Z,70.80
2022-08-17T06:41:21.224Z,70.71
2022-08-17T06:43:56.751Z,70.61
2022-08-17T06:46:29.015Z,70.80
2022-08-17T06:49:33.248Z,70.80
2022-08-17T06:52:12.299Z,70.81
2022-08-17T06:55:19.514Z,70.32
2022-08-17T06:58:05.903Z,70.27
2022-08-17T07:00:47.158Z,70.09
2022-08-17T07:03:09.889Z,70.19
2022-08-17T07:05:50.467Z,70.01
2022-08-17T07:08:51.624Z,69.67
2022-08-17T07:11:23.606Z,69.66
2022-08-17T07:14:16.653Z,68.93
2022-08-17T07:16:56.233Z,68.85
2022-08-17T07:19:25.271Z,68.56
2022-08-17T07:22:15.891Z,68.43
2022-08-17T07:24:51.593Z,68.78
2022-08-17T07:27:22.732Z,68.57
2022-08-17T07:30:10.379Z,68.37
2022-08-17T07:32:51.090Z,68.31
2022-08-17T07:35:37.673Z,68.02
2022-08-17T07:38:28.398Z,68.33
2022-08-17T07:41:05.300Z,68.11
2022-08-17T07:43:40.977Z,68.21
2022-08-17T07:46:41.634Z,68.41
2022-08-17T07:49:03.638Z,68.40
2022-08-17T07:51:55.479Z,68.06
2022-08-17T07:54:32.725Z,67.87
2022-08-17T07:57:25.402Z,67.71
2022-08-17T08:00:01.455Z,67.37
2022-08-17T08:02:31.127Z,67.22
2022-08-17T08:05:13.203Z,67.51
2022-08-17T08:07:50.531Z,67.44
2022-08-17T08:10:27.913Z,67.19
2022-08-17T08:13:24.459Z,67.55
2022-08-17T08:15:54.097Z,67.86
2022-08-17T08:18:38.759Z,67.79
2022-08-17T08:21:21.960Z,68.60
2022-08-17T08:24:07.155Z,69.05
2022-08-17T08:26:47.593Z,69.55
2022-08-17T08:29:34.093Z,71.17
2022-08-17T08:32:11.778Z,72.89
2022-08-17T08:35:13.988Z,73.85
2022-08-17T08:37:43.677Z,74.26
2022-08-17T08:40:56.357Z,74.62
2022-08-17T08:43:36.320Z,75.19
2022-08-17T08:46:24.557Z,75.50
2022-08-17T08:49:11.844Z,75.38
2022-08-17T08:51:55.736Z,74.87
2022-08-17T08:54:38.630Z,73.87
2022-08-17T09:00:24.811Z,74.54
2022-08-17T09:02:58.862Z,74.33
2022-08-17T09:05:56.028Z,73.62
2022-08-17T09:08:45.881Z,72.29
2022-08-17T09:11:23.734Z,71.65
2022-08-17T09:14:28.416Z,70.56
2022-08-17T09:17:12.902Z,69.99
2022-08-17T09:19:48.078Z,68.96
2022-08-17T09:22:32.564Z,68.45
2022-08-17T09:25:03.310Z,67.22
2022-08-17T09:28:00.777Z,67.16
2022-08-17T09:30:25.152Z,66.23
2022-08-17T09:32:56.288Z,66.04
2022-08-17T09:35:36.539Z,65.48
2022-08-17T09:38:19.699Z,65.56
2022-08-17T09:40:57.205Z,65.61
2022-08-17T09:43:46.660Z,65.97
2022-08-17T09:46:18.169Z,65.78
2022-08-17T09:48:57.560Z,65.82
2022-08-17T09:51:55.160Z,65.84
2022-08-17T09:54:40.680Z,65.81
2022-08-17T09:57:29.283Z,65.70
2022-08-17T10:00:16.969Z,65.43
2022-08-17T10:03:16.481Z,66.20
2022-08-17T10:06:00.514Z,67.21
2022-08-17T10:08:55.203Z,67.14
2022-08-17T10:11:53.951Z,67.43
2022-08-17T10:14:37.231Z,66.80
2022-08-17T10:17:33.047Z,67.30
2022-08-17T10:20:15.360Z,67.01
2022-08-17T10:23:01.978Z,67.00
2022-08-17T10:25:59.514Z,66.84
2022-08-17T10:28:38.981Z,66.70
2022-08-17T10:34:41.788Z,66.68
2022-08-17T10:37:40.645Z,67.14
2022-08-17T10:40:36.335Z,67.35
2022-08-17T10:43:04.583Z,67.49
2022-08-17T10:45:33.961Z,67.62
2022-08-17T10:48:07.397Z,68.21
2022-08-17T10:51:00.262Z,68.37
2022-08-17T10:53:49.431Z,68.47
2022-08-17T10:56:14.293Z,68.40
2022-08-17T10:58:59.687Z,68.93
2022-08-17T11:02:03.936Z,69.00
2022-08-17T11:05:08.909Z,70.45
2022-08-17T11:07:55.067Z,71.32
2022-08-17T11:11:12.415Z,71.20
2022-08-17T11:13:55.988Z,72.06
2022-08-17T11:16:47.932Z,73.12
2022-08-17T11:19:28.798Z,73.26
2022-08-17T11:23:04.859Z,73.19
2022-08-17T11:25:47.077Z,73.52
2022-08-17T11:28:23.570Z,73.88
2022-08-17T11:30:53.515Z,74.11
2022-08-17T11:33:38.097Z,74.51
2022-08-17T11:36:34.254Z,74.93
2022-08-17T11:39:14.851Z,75.01
2022-08-17T11:41:51.073Z,75.03
2022-08-17T11:44:52.538Z,75.23
2022-08-17T11:48:16.144Z,75.28
2022-08-17T11:51:17.609Z,74.87
2022-08-17T11:53:39.416Z,75.07
2022-08-17T11:56:08.203Z,74.92
2022-08-17T11:58:29.925Z,74.50
2022-08-17T12:01:00.775Z,74.72
2022-08-17T12:03:31.871Z,75.04
2022-08-17T12:06:11.122Z,74.74
2022-08-17T12:08:45.357Z,74.61
2022-08-17T12:11:16.574Z,74.95
2022-08-17T12:14:00.639Z,74.94
2022-08-17T12:16:22.661Z,75.09
2022-08-17T12:18:59.285Z,74.93
2022-08-17T12:21:28.066Z,74.62
2022-08-17T12:24:06.441Z,74.75
2022-08-17T12:26:33.587Z,73.90
2022-08-17T12:29:01.828Z,74.16
2022-08-17T12:31:34.384Z,73.25
2022-08-17T12:33:56.972Z,73.43
2022-08-17T12:36:28.414Z,73.18
2022-08-17T12:39:13.999Z,73.01
2022-08-17T12:41:47.298Z,74.10
2022-08-17T12:44:50.303Z,74.38
2022-08-17T12:47:22.680Z,74.94
2022-08-17T12:49:52.380Z,74.73
2022-08-17T12:52:25.022Z,75.18
2022-08-17T12:54:52.538Z,75.15
2022-08-17T12:57:24.433Z,74.87
2022-08-17T12:59:58.905Z,75.37
2022-08-17T13:02:30.180Z,75.69
2022-08-17T13:04:52.138Z,76.29
2022-08-17T13:07:28.420Z,76.52
2022-08-17T13:09:51.429Z,77.09
2022-08-17T13:12:13.258Z,77.33
2022-08-17T13:14:35.414Z,77.32
2022-08-17T13:17:09.701Z,76.98
2022-08-17T13:19:40.785Z,77.28
2022-08-17T13:22:09.506Z,77.37
2022-08-17T13:24:38.235Z,77.79
2022-08-17T13:27:07.928Z,77.29
2022-08-17T13:29:55.587Z,77.42
2022-08-17T13:32:47.197Z,77.75
2022-08-17T13:35:50.310Z,77.68
2022-08-17T13:38:34.740Z,77.53
2022-08-17T13:40:56.553Z,77.70
2022-08-17T13:43:45.211Z,77.81
2022-08-17T13:46:31.244Z,77.72
2022-08-17T13:49:10.026Z,77.86
2022-08-17T13:51:52.976Z,77.70
2022-08-17T13:54:37.009Z,77.08
2022-08-17T13:57:22.850Z,77.07
2022-08-17T13:59:55.125Z,77.61
2022-08-17T14:02:20.792Z,77.46
2022-08-17T14:04:46.081Z,76.67
2022-08-17T14:07:15.478Z,77.20
2022-08-17T14:09:52.597Z,76.48
2022-08-17T14:12:20.039Z,75.66
2022-08-17T14:14:43.364Z,75.65
2022-08-17T14:17:05.904Z,75.65
2022-08-17T14:19:29.886Z,75.05
2022-08-17T14:21:56.496Z,74.99
2022-08-17T14:24:35.225Z,74.99
2022-08-17T14:26:59.863Z,74.55
2022-08-17T14:29:24.597Z,74.68
2022-08-17T14:31:53.403Z,75.12
2022-08-17T14:34:16.807Z,75.38
2022-08-17T14:36:48.163Z,74.63
2022-08-17T14:39:12.678Z,74.18
2022-08-17T14:41:35.418Z,74.18
2022-08-17T14:43:57.701Z,74.19
2022-08-17T14:46:20.347Z,74.25
2022-08-17T14:48:42.481Z,74.33
2022-08-17T14:51:05.593Z,74.21
2022-08-17T14:53:27.453Z,74.47
2022-08-17T14:55:51.467Z,74.43
2022-08-17T14:58:13.532Z,74.23
2022-08-17T15:00:35.557Z,74.27
2022-08-17T15:03:00.996Z,74.42
2022-08-17T15:05:27.423Z,74.60
2022-08-17T15:07:49.650Z,74.85
2022-08-17T15:10:14.636Z,74.61
2022-08-17T15:12:37.027Z,74.73
2022-08-17T15:15:00.592Z,74.51
2022-08-17T15:17:23.319Z,74.24
2022-08-17T15:19:45.464Z,74.41
2022-08-17T15:22:18.632Z,74.10
2022-08-17T15:24:40.493Z,73.58
2022-08-17T15:27:02.391Z,73.91
2022-08-17T15:29:24.377Z,74.33
2022-08-17T15:31:46.260Z,74.38
2022-08-17T15:34:08.409Z,74.50
2022-08-17T15:36:32.785Z,74.10
2022-08-17T15:38:54.625Z,74.06
2022-08-17T15:41:18.449Z,73.77
2022-08-17T15:43:40.956Z,74.07
2022-08-17T15:46:07.032Z,74.18
2022-08-17T15:48:43.952Z,74.15
2022-08-17T15:51:06.543Z,74.52
2022-08-17T15:53:28.372Z,74.35
2022-08-17T15:55:50.215Z,74.69
2022-08-17T15:58:14.246Z,74.81
2022-08-17T16:00:49.432Z,74.77
2022-08-17T16:03:58.071Z,74.86
2022-08-17T16:06:07.808Z,72.90
2022-08-17T16:08:31.802Z,73.16
2022-08-17T16:10:55.404Z,73.26
2022-08-17T16:13:19.523Z,73.34
2022-08-17T16:15:41.529Z,72.85
2022-08-17T16:18:05.072Z,72.42
2022-08-17T16:20:27.796Z,72.37
2022-08-17T16:22:50.891Z,72.05
2022-08-17T16:25:21.384Z,71.86
2022-08-17T16:27:43.908Z,71.62
2022-08-17T16:30:09.783Z,71.60
2022-08-17T16:32:33.570Z,71.60
2022-08-17T16:34:56.093Z,70.92
2022-08-17T16:37:18.924Z,71.05
2022-08-17T16:39:41.377Z,71.48
2022-08-17T16:42:05.498Z,71.51
2022-08-17T16:44:30.399Z,71.48
2022-08-17T16:46:52.436Z,71.20
2022-08-17T16:49:36.103Z,71.75
2022-08-17T16:52:03.029Z,71.62
2022-08-17T16:54:24.897Z,71.77
2022-08-17T16:56:46.751Z,72.08
2022-08-17T16:59:21.128Z,72.15
2022-08-17T17:01:53.780Z,72.59
2022-08-17T17:04:19.184Z,72.65
2022-08-17T17:07:17.077Z,72.58
2022-08-17T17:09:39.569Z,72.51
2022-08-17T17:12:17.782Z,72.62
2022-08-17T17:14:46.555Z,72.53
2022-08-17T17:17:34.626Z,72.67
2022-08-17T17:20:10.301Z,73.01
2022-08-17T17:22:49.400Z,73.00
2022-08-17T17:25:20.333Z,73.22
2022-08-17T17:27:51.353Z,73.19
2022-08-17T17:30:24.453Z,73.25
2022-08-17T17:33:39.126Z,73.41
2022-08-17T17:36:08.115Z,73.28
2022-08-17T17:38:47.412Z,73.43
2022-08-17T17:41:25.828Z,73.37
2022-08-17T17:43:58.127Z,73.05
2022-08-17T17:46:33.273Z,72.22
2022-08-17T17:48:55.419Z,71.84
2022-08-17T17:52:09.495Z,72.09
2022-08-17T17:54:29.549Z,72.26
2022-08-17T17:57:15.274Z,72.74
2022-08-17T17:59:45.416Z,73.02
2022-08-17T18:02:53.163Z,73.12
2022-08-17T18:05:36.689Z,73.08
2022-08-17T18:08:32.122Z,73.42
2022-08-17T18:11:42.069Z,73.67
2022-08-17T18:14:29.040Z,74.11
2022-08-17T18:17:00.391Z,73.82
2022-08-17T18:19:25.758Z,74.13
2022-08-17T18:21:54.912Z,74.09
2022-08-17T18:24:34.568Z,74.23
2022-08-17T18:27:08.261Z,74.19
2022-08-17T18:29:40.584Z,74.37
2022-08-17T18:32:33.253Z,74.04
2022-08-17T18:35:10.601Z,74.13
2022-08-17T18:37:48.885Z,74.38
2022-08-17T18:40:16.921Z,74.47
2022-08-17T18:42:38.974Z,74.58
2022-08-17T18:45:01.009Z,74.49
2022-08-17T18:47:29.772Z,74.69
2022-08-17T18:50:14.612Z,74.52
2022-08-17T18:52:36.500Z,74.70
2022-08-17T18:55:19.886Z,74.71
2022-08-17T18:57:44.697Z,74.75
2022-08-17T19:00:15.516Z,74.84
2022-08-17T19:02:52.929Z,74.78
2022-08-17T19:05:36.668Z,74.81
2022-08-17T19:08:36.034Z,74.88
2022-08-17T19:11:21.314Z,75.04
2022-08-17T19:13:51.616Z,74.92
2022-08-17T19:16:31.793Z,75.19
2022-08-17T19:19:11.461Z,75.49
2022-08-17T19:21:40.294Z,75.82
2022-08-17T19:24:33.516Z,75.66
2022-08-17T19:27:07.931Z,75.85
2022-08-17T19:30:01.709Z,75.87
2022-08-17T19:32:34.924Z,75.87
2022-08-17T19:34:57.890Z,75.91
2022-08-17T19:37:49.587Z,75.95
2022-08-17T19:40:51.081Z,76.01
2022-08-17T19:43:17.629Z,76.14
2022-08-17T19:46:06.123Z,76.33
2022-08-17T19:48:48.604Z,76.53
2022-08-17T19:51:24.819Z,76.67
2022-08-17T19:54:07.412Z,76.70
2022-08-17T19:57:02.880Z,76.70
2022-08-17T19:59:53.054Z,76.75
2022-08-17T20:02:41.801Z,76.80
2022-08-17T20:05:16.109Z,76.87
2022-08-17T20:08:22.068Z,76.88
2022-08-17T20:10:55.584Z,77.01
2022-08-17T20:13:33.466Z,77.14
2022-08-17T20:15:55.849Z,77.40
2022-08-17T20:18:48.632Z,77.35
2022-08-17T20:21:23.469Z,77.90
2022-08-17T20:23:57.952Z,77.98
2022-08-17T20:26:34.267Z,78.05
2022-08-17T20:29:14.343Z,78.19
2022-08-17T20:31:40.801Z,78.14
2022-08-17T20:34:39.661Z,78.50
2022-08-17T20:37:28.150Z,78.28
2022-08-17T20:39:49.962Z,78.22
2022-08-17T20:42:31.575Z,78.38
2022-08-17T20:45:21.539Z,77.92
2022-08-17T20:48:36.076Z,78.13
2022-08-17T20:51:09.743Z,78.20
2022-08-17T20:53:46.687Z,78.22
2022-08-17T20:56:08.612Z,78.12
2022-08-17T20:58:31.048Z,78.16
2022-08-17T21:00:56.372Z,78.35
2022-08-17T21:03:25.040Z,78.54
2022-08-17T21:06:25.741Z,78.55
2022-08-17T21:09:29.972Z,78.53
2022-08-17T21:12:04.392Z,78.62
2022-08-17T21:14:56.131Z,78.56
2022-08-17T21:17:46.644Z,78.74
2022-08-17T21:20:40.125Z,78.70
2022-08-17T21:23:26.426Z,78.49
2022-08-17T21:26:33.141Z,78.76
2022-08-17T21:29:30.906Z,78.77
2022-08-17T21:32:05.317Z,78.93
2022-08-17T21:34:37.068Z,78.79
2022-08-17T21:37:19.994Z,78.74
2022-08-17T21:39:42.411Z,78.92
2022-08-17T21:42:06.629Z,78.86
2022-08-17T21:44:41.628Z,78.99
2022-08-17T21:47:40.155Z,79.13
2022-08-17T21:50:23.480Z,79.20
2022-08-17T21:52:45.994Z,79.47
2022-08-17T21:55:28.245Z,79.29
2022-08-17T21:57:52.986Z,79.54
2022-08-17T22:00:33.414Z,79.79
2022-08-17T22:03:01.903Z,79.67
2022-08-17T22:05:33.014Z,79.76
2022-08-17T22:08:19.224Z,80.04
2022-08-17T22:10:50.461Z,80.06
2022-08-17T22:13:18.311Z,80.17
2022-08-17T22:15:45.218Z,80.22
2022-08-17T22:18:22.130Z,80.31
2022-08-17T22:20:44.141Z,80.46
2022-08-17T22:23:32.666Z,80.52
2022-08-17T22:26:04.891Z,80.60
2022-08-17T22:28:54.052Z,80.87
2022-08-17T22:31:21.132Z,81.08
2022-08-17T22:34:12.501Z,80.75
2022-08-17T22:36:42.124Z,81.59
2022-08-17T22:39:08.503Z,81.82
2022-08-17T22:42:00.977Z,81.96
2022-08-17T22:44:48.782Z,81.86
2022-08-17T22:47:17.093Z,82.02
2022-08-17T22:50:01.790Z,81.99
2022-08-17T22:53:10.653Z,81.94
2022-08-17T22:55:52.493Z,81.91
2022-08-17T22:58:43.494Z,81.91
2022-08-17T23:01:33.318Z,81.97
2022-08-17T23:04:08.966Z,81.98
2022-08-17T23:06:33.926Z,81.95
2022-08-17T23:08:56.679Z,82.03
2022-08-17T23:11:18.622Z,82.09
2022-08-17T23:13:40.915Z,81.90
2022-08-17T23:16:03.808Z,82.19
2022-08-17T23:18:27.358Z,82.36
2022-08-17T23:20:49.257Z,82.52
2022-08-17T23:23:14.633Z,82.72
2022-08-17T23:25:37.125Z,82.71
2022-08-17T23:28:03.776Z,82.67
2022-08-17T23:30:27.223Z,82.78
2022-08-17T23:32:53.374Z,82.96
2022-08-17T23:35:16.643Z,82.77
2022-08-17T23:37:39.166Z,82.92
2022-08-17T23:40:00.993Z,82.83
2022-08-17T23:42:23.241Z,82.84
2022-08-17T23:44:45.088Z,82.75
2022-08-17T23:47:07.801Z,82.86
2022-08-17T23:49:31.293Z,83.01
2022-08-17T23:51:55.870Z,83.15
2022-08-17T23:54:26.565Z,83.05
2022-08-17T23:56:48.600Z,82.97
2022-08-17T23:59:11.393Z,83.19
